Time;durP1;ratioP1;P1;durP2;ratioP2;P2;SDS_P1;SDS_P2;PMS_P1;PMS_P2;Temp;Humidity;BMP_temperature;BMP_pressure;BME280_temperature;BME280_humidity;BME280_pressure;Samples;Min_cycle;Max_cycle;Signal;HPM_P1;HPM_P2
2022/04/21 00:00:53;;;;;;;3.03;1.30;;;9.30;90.80;;;;;;10463847;28;20051;-88
2022/04/21 00:05:56;;;;;;;4.90;1.15;;;9.30;91.10;;;;;;10460261;28;20427;-86
2022/04/21 00:10:57;;;;;;;6.93;2.70;;;9.30;91.30;;;;;;10469569;28;20194;-87
2022/04/21 00:16:00;;;;;;;3.20;1.40;;;9.30;90.70;;;;;;10450228;28;20049;-87
2022/04/21 00:21:03;;;;;;;9.15;1.05;;;9.30;91.20;;;;;;10478300;28;20044;-87
2022/04/21 00:26:05;;;;;;;2.83;1.38;;;9.20;91.60;;;;;;10455624;28;20103;-87
2022/04/21 00:31:06;;;;;;;5.53;1.52;;;9.10;92.00;;;;;;10476919;28;20059;-87
2022/04/21 00:36:10;;;;;;;6.40;1.50;;;9.00;92.70;;;;;;10489060;28;20489;-87
2022/04/21 00:41:11;;;;;;;2.28;1.27;;;8.90;92.30;;;;;;10440956;28;20053;-87
2022/04/21 00:46:18;;;;;;;3.30;1.10;;;8.90;92.50;;;;;;10463494;28;20053;-88
2022/04/21 00:51:22;;;;;;;2.10;1.23;;;8.90;93.50;;;;;;10460585;28;20049;-87
2022/04/21 00:56:25;;;;;;;4.63;2.00;;;8.70;94.20;;;;;;10464538;28;20487;-88
2022/04/21 01:06:52;;;;;;;3.05;0.98;;;8.60;95.10;;;;;;10479760;28;20482;-87
2022/04/21 01:11:54;;;;;;;3.83;1.00;;;8.50;97.10;;;;;;10462495;28;20044;-88
2022/04/21 01:17:00;;;;;;;2.92;1.38;;;8.30;97.80;;;;;;10473357;28;20079;-87
2022/04/21 01:22:02;;;;;;;4.53;1.80;;;8.30;98.10;;;;;;10471891;28;20054;-87
2022/04/21 01:27:04;;;;;;;2.25;1.40;;;8.20;98.60;;;;;;10449703;28;20086;-87
2022/04/21 01:32:06;;;;;;;4.15;1.42;;;8.10;99.90;;;;;;10454398;28;20056;-86
2022/04/21 01:42:29;;;;;;;6.03;1.83;;;8.00;99.90;;;;;;10456698;28;20078;-86
2022/04/21 01:47:30;;;;;;;3.78;1.42;;;7.90;99.90;;;;;;10444765;28;20123;-86
2022/04/21 01:52:36;;;;;;;3.15;1.52;;;7.80;99.90;;;;;;10476115;28;20131;-87
2022/04/21 01:57:38;;;;;;;2.58;1.48;;;7.60;99.90;;;;;;10472526;28;20094;-86
2022/04/21 02:02:40;;;;;;;3.67;1.67;;;7.50;99.90;;;;;;10439271;28;20100;-86
2022/04/21 02:07:44;;;;;;;3.38;1.50;;;7.50;99.90;;;;;;10437682;28;20049;-87
2022/04/21 02:12:46;;;;;;;4.78;1.30;;;7.50;99.90;;;;;;10454414;28;20052;-87
2022/04/21 02:17:47;;;;;;;1.98;1.33;;;7.50;99.90;;;;;;10454862;28;20059;-87
2022/04/21 02:22:49;;;;;;;2.13;1.23;;;7.50;99.90;;;;;;10453250;28;20524;-86
2022/04/21 02:27:51;;;;;;;2.13;1.42;;;7.40;99.90;;;;;;10453648;28;20534;-86
2022/04/21 02:32:53;;;;;;;2.90;1.65;;;7.30;99.90;;;;;;10456932;28;20056;-86
2022/04/21 02:37:55;;;;;;;2.67;1.85;;;7.10;99.90;;;;;;10469084;28;20074;-85
2022/04/21 02:42:56;;;;;;;3.83;1.55;;;7.10;99.90;;;;;;10444624;28;20059;-86
2022/04/21 02:47:58;;;;;;;4.75;1.90;;;7.10;99.90;;;;;;10469702;28;20128;-85
2022/04/21 02:53:00;;;;;;;4.32;1.55;;;7.00;99.90;;;;;;10449402;28;20056;-85
2022/04/21 02:58:03;;;;;;;5.75;2.33;;;7.00;99.90;;;;;;10472730;28;20619;-85
2022/04/21 03:03:05;;;;;;;4.55;1.73;;;6.90;99.90;;;;;;10438509;28;20055;-87
2022/04/21 03:08:07;;;;;;;3.58;1.58;;;6.90;99.90;;;;;;10468218;28;20048;-87
2022/04/21 03:13:09;;;;;;;6.72;2.17;;;6.80;99.90;;;;;;10454569;28;20045;-88
2022/04/21 03:18:11;;;;;;;6.80;1.95;;;6.80;99.90;;;;;;10450836;28;20064;-88
2022/04/21 03:28:33;;;;;;;3.58;1.83;;;6.60;99.90;;;;;;10468462;28;20062;-88
2022/04/21 03:33:34;;;;;;;4.55;1.83;;;6.50;99.90;;;;;;10445296;28;20515;-88
2022/04/21 03:38:38;;;;;;;5.38;2.35;;;6.40;99.90;;;;;;10453789;28;20049;-87
2022/04/21 03:43:40;;;;;;;3.13;2.10;;;6.30;99.90;;;;;;10434675;28;20048;-88
2022/04/21 03:48:42;;;;;;;3.67;1.63;;;6.30;99.90;;;;;;10454761;28;20132;-87
2022/04/21 03:53:44;;;;;;;4.60;3.70;;;6.30;99.90;;;;;;10468337;28;20047;-88
2022/04/21 03:58:46;;;;;;;6.18;2.80;;;6.20;99.90;;;;;;10474186;28;20115;-88
2022/04/21 04:03:48;;;;;;;4.78;2.47;;;6.20;99.90;;;;;;10437877;28;20061;-86
2022/04/21 04:14:11;;;;;;;3.65;1.88;;;6.30;99.90;;;;;;10477644;28;20048;-87
2022/04/21 04:19:13;;;;;;;3.30;2.08;;;6.10;99.90;;;;;;10462672;28;20453;-87
2022/04/21 04:24:15;;;;;;;4.18;2.42;;;6.20;99.90;;;;;;10480650;28;20056;-87
2022/04/21 04:29:22;;;;;;;2.67;1.83;;;6.20;99.90;;;;;;10474894;28;20052;-87
2022/04/21 04:34:24;;;;;;;4.40;2.10;;;6.20;99.90;;;;;;10468702;28;20374;-87
2022/04/21 04:39:26;;;;;;;5.03;2.60;;;6.20;99.90;;;;;;10452036;28;20302;-87
2022/04/21 04:44:28;;;;;;;5.85;2.05;;;6.30;99.90;;;;;;10471960;28;20115;-87
2022/04/21 04:49:30;;;;;;;4.35;2.25;;;6.30;99.90;;;;;;10442944;28;20055;-87
2022/04/21 04:54:32;;;;;;;6.15;2.30;;;6.20;99.90;;;;;;10450954;28;20064;-87
2022/04/21 04:59:34;;;;;;;13.02;2.95;;;6.30;99.90;;;;;;10443146;28;20040;-86
2022/04/21 05:04:37;;;;;;;4.03;2.10;;;6.10;99.90;;;;;;10451053;28;20079;-87
2022/04/21 05:09:38;;;;;;;5.70;2.05;;;6.00;99.90;;;;;;10455999;28;20028;-86
2022/04/21 05:14:40;;;;;;;6.22;2.30;;;5.90;99.90;;;;;;10452264;28;20498;-86
2022/04/21 05:19:43;;;;;;;11.18;2.30;;;6.00;99.90;;;;;;10453390;28;20056;-86
2022/04/21 05:24:47;;;;;;;7.57;2.20;;;6.10;99.90;;;;;;10469757;28;20103;-87
2022/04/21 05:35:11;;;;;;;8.00;2.55;;;6.30;99.90;;;;;;10458243;28;20048;-87
2022/04/21 05:40:13;;;;;;;3.25;1.70;;;6.40;99.90;;;;;;10476034;28;20096;-87
2022/04/21 05:45:16;;;;;;;4.25;2.63;;;6.60;99.90;;;;;;10447305;28;20052;-87
2022/04/21 05:50:19;;;;;;;4.80;2.55;;;6.70;99.90;;;;;;10453809;28;20565;-87
2022/04/21 05:55:21;;;;;;;5.95;2.55;;;6.80;99.90;;;;;;10456700;28;20052;-87
2022/04/21 06:00:23;;;;;;;4.22;2.58;;;6.90;99.90;;;;;;10462482;28;20131;-86
2022/04/21 06:05:25;;;;;;;5.13;2.38;;;7.00;99.90;;;;;;10470086;28;20080;-86
2022/04/21 06:10:26;;;;;;;7.20;2.42;;;7.30;99.90;;;;;;10441046;28;20060;-88
2022/04/21 06:15:30;;;;;;;5.20;2.95;;;7.40;99.90;;;;;;10456506;28;20109;-88
2022/04/21 06:20:34;;;;;;;3.75;2.30;;;7.70;99.90;;;;;;10461964;28;20051;-88
2022/04/21 06:25:36;;;;;;;4.22;1.98;;;7.80;99.90;;;;;;10458327;28;20118;-89
2022/04/21 06:30:38;;;;;;;9.23;2.35;;;8.00;99.90;;;;;;10453444;28;20053;-89
2022/04/21 06:35:40;;;;;;;5.00;1.70;;;8.20;99.90;;;;;;10450806;28;20114;-88
2022/04/21 06:40:42;;;;;;;3.47;2.35;;;8.40;99.90;;;;;;10446110;28;20471;-89
2022/04/21 06:51:05;;;;;;;3.53;1.48;;;9.00;99.90;;;;;;10472704;28;20053;-89
2022/04/21 06:56:08;;;;;;;2.03;1.30;;;9.30;99.90;;;;;;10454634;28;20047;-89
2022/04/21 07:01:10;;;;;;;2.65;1.10;;;9.60;99.90;;;;;;10457818;28;20492;-89
2022/04/21 07:06:12;;;;;;;4.13;1.35;;;9.90;97.30;;;;;;10441903;28;20080;-89
2022/04/21 07:11:15;;;;;;;9.20;1.80;;;10.10;94.40;;;;;;10471546;28;20087;-89
2022/04/21 07:16:17;;;;;;;3.38;1.15;;;10.30;94.00;;;;;;10455547;28;20544;-89
2022/04/21 07:21:19;;;;;;;2.75;1.33;;;10.50;93.00;;;;;;10436106;28;20059;-89
2022/04/21 07:26:21;;;;;;;3.38;1.10;;;10.80;91.60;;;;;;10460180;28;20506;-89
2022/04/21 07:31:28;;;;;;;4.07;1.13;;;10.90;89.40;;;;;;10451746;28;20055;-89
2022/04/21 07:36:30;;;;;;;1.75;1.00;;;11.10;86.70;;;;;;10459395;28;20048;-89
2022/04/21 07:41:33;;;;;;;4.60;1.00;;;11.10;83.90;;;;;;10455428;28;20131;-89
2022/04/21 07:46:36;;;;;;;5.28;1.00;;;11.30;84.00;;;;;;10450039;28;20461;-90
2022/04/21 07:51:38;;;;;;;2.63;1.20;;;11.30;84.20;;;;;;10479098;28;20041;-90
2022/04/21 07:56:40;;;;;;;4.30;0.95;;;11.30;82.30;;;;;;10441541;28;20464;-88
2022/04/21 08:01:42;;;;;;;6.93;1.10;;;11.40;82.50;;;;;;10473663;28;20048;-89
2022/04/21 08:06:45;;;;;;;2.83;1.35;;;11.40;81.00;;;;;;10439523;28;20047;-88
2022/04/21 08:11:46;;;;;;;2.13;1.27;;;11.40;80.60;;;;;;10439358;28;20139;-89
2022/04/21 08:16:48;;;;;;;2.60;1.20;;;11.30;81.10;;;;;;10439502;28;21535;-89
2022/04/21 08:21:50;;;;;;;3.28;1.10;;;11.40;81.80;;;;;;10418350;28;20057;-87
2022/04/21 08:37:34;;;;;;;2.25;1.05;;;11.20;81.70;;;;;;10425324;28;20467;-89
2022/04/21 08:42:38;;;;;;;3.80;1.55;;;11.30;83.30;;;;;;10404764;28;20049;-89
2022/04/21 08:47:42;;;;;;;3.90;1.13;;;11.30;82.50;;;;;;10421145;28;20049;-90
2022/04/21 08:52:44;;;;;;;7.00;1.42;;;11.50;82.50;;;;;;10406670;28;20454;-89
2022/04/21 08:57:45;;;;;;;3.22;1.10;;;11.70;81.20;;;;;;10437570;28;20056;-89
2022/04/21 09:02:49;;;;;;;1.70;0.80;;;11.80;79.90;;;;;;10437795;28;20088;-89
2022/04/21 09:07:52;;;;;;;4.50;1.35;;;12.10;79.70;;;;;;10476197;28;20036;-89
2022/04/21 09:13:14;;;;;;;5.05;1.35;;;12.20;76.90;;;;;;10450736;28;20491;-88
2022/04/21 09:18:15;;;;;;;2.35;0.93;;;12.40;75.90;;;;;;10452665;28;20056;-87
2022/04/21 09:23:17;;;;;;;1.73;0.88;;;12.70;75.20;;;;;;10456320;28;20025;-89
2022/04/21 09:28:21;;;;;;;4.25;0.85;;;13.20;73.50;;;;;;10455080;28;20104;-90
2022/04/21 09:33:32;;;;;;;1.52;0.88;;;13.70;71.60;;;;;;10439768;28;20044;-89
2022/04/21 09:38:35;;;;;;;2.92;1.15;;;13.90;67.20;;;;;;10471097;28;20024;-90
2022/04/21 09:43:38;;;;;;;1.17;0.60;;;13.90;67.40;;;;;;10445805;28;20045;-90
2022/04/21 09:48:41;;;;;;;4.10;1.10;;;14.00;67.00;;;;;;10458032;28;20144;-89
2022/04/21 09:53:49;;;;;;;3.97;0.80;;;13.70;66.80;;;;;;10443686;28;20072;-89
2022/04/21 09:58:51;;;;;;;4.20;1.30;;;14.00;66.10;;;;;;10468081;28;20119;-89
2022/04/21 10:03:53;;;;;;;1.63;0.95;;;14.10;67.00;;;;;;10442285;28;20083;-88
2022/04/21 10:08:56;;;;;;;2.50;1.02;;;14.50;65.80;;;;;;10441816;28;20086;-88
2022/04/21 10:13:58;;;;;;;4.18;0.90;;;14.60;64.60;;;;;;10438567;28;20084;-90
2022/04/21 10:19:02;;;;;;;3.40;1.15;;;14.80;61.90;;;;;;10447755;28;20148;-88
2022/04/21 10:24:05;;;;;;;2.70;0.65;;;14.70;60.40;;;;;;10449977;28;20087;-88
2022/04/21 10:29:13;;;;;;;2.00;0.90;;;15.00;62.30;;;;;;10448469;28;20159;-90
2022/04/21 10:34:34;;;;;;;2.42;1.15;;;15.00;60.90;;;;;;10461348;28;20110;-88
2022/04/21 10:39:37;;;;;;;3.13;1.08;;;15.60;60.50;;;;;;10430781;28;20044;-88
2022/04/21 10:44:52;;;;;;;4.88;0.90;;;16.20;58.80;;;;;;10448869;28;20580;-89
2022/04/21 10:50:12;;;;;;;1.75;0.90;;;16.40;58.50;;;;;;10451332;28;20058;-89
2022/04/21 11:00:38;;;;;;;1.83;0.80;;;16.90;56.40;;;;;;10444177;28;20559;-88
2022/04/21 11:05:40;;;;;;;4.15;1.00;;;17.10;55.80;;;;;;10462284;28;20651;-89
2022/04/21 11:10:43;;;;;;;2.75;0.98;;;17.10;57.80;;;;;;10442022;28;20151;-89
2022/04/21 11:15:50;;;;;;;2.63;1.02;;;17.10;56.40;;;;;;10449329;28;20067;-88
2022/04/21 11:21:12;;;;;;;;;;;17.30;55.50;;;;;;10447952;28;20045;-88
2022/04/21 11:26:15;;;;;;;1.95;0.80;;;17.60;55.80;;;;;;10449873;28;19982;-86
2022/04/21 11:31:20;;;;;;;2.13;0.90;;;17.40;54.40;;;;;;10447908;28;20044;-87
2022/04/21 11:36:34;;;;;;;1.63;0.70;;;17.80;55.30;;;;;;10443997;28;20045;-87
2022/04/21 11:41:44;;;;;;;4.63;0.77;;;17.90;54.20;;;;;;10432261;28;20052;-87
2022/04/21 11:46:46;;;;;;;2.35;1.02;;;17.90;54.20;;;;;;10445413;28;20052;-87
2022/04/21 11:51:54;;;;;;;4.43;0.88;;;17.70;53.50;;;;;;10461562;28;20037;-87
2022/04/21 11:56:56;;;;;;;2.47;0.98;;;18.00;53.70;;;;;;10460497;28;20102;-87
2022/04/21 12:07:25;;;;;;;3.22;0.80;;;18.30;53.60;;;;;;10400416;28;20134;-88
2022/04/21 12:12:27;;;;;;;2.90;0.55;;;18.60;53.50;;;;;;10358702;28;20068;-91
2022/04/21 12:17:30;;;;;;;2.15;0.75;;;18.70;53.50;;;;;;10385269;28;20483;-87
2022/04/21 12:22:32;;;;;;;1.98;0.80;;;19.10;52.00;;;;;;10400100;28;20072;-87
2022/04/21 12:27:38;;;;;;;0.95;0.60;;;19.20;51.90;;;;;;10402736;28;20076;-86
2022/04/21 12:32:47;;;;;;;4.35;0.65;;;19.80;51.30;;;;;;10405132;28;20123;-86
2022/04/21 12:43:14;;;;;;;2.05;0.57;;;20.10;50.70;;;;;;10426294;28;20144;-87
2022/04/21 12:48:26;;;;;;;1.10;0.50;;;20.60;49.90;;;;;;10423109;28;20039;-87
2022/04/21 12:53:32;;;;;;;1.30;0.70;;;20.50;48.40;;;;;;10399301;28;20397;-87
2022/04/21 12:58:34;;;;;;;1.13;0.57;;;20.00;49.60;;;;;;10388424;28;20320;-88
2022/04/21 13:03:38;;;;;;;1.67;0.80;;;19.90;51.20;;;;;;10431750;28;20130;-87
2022/04/21 13:08:40;;;;;;;3.53;0.70;;;19.40;50.70;;;;;;10469890;28;20159;-90
2022/04/21 13:13:41;;;;;;;2.13;0.60;;;19.60;50.40;;;;;;10470643;28;20049;-87
2022/04/21 13:18:44;;;;;;;3.47;0.70;;;20.00;50.20;;;;;;10468891;28;20054;-88
2022/04/21 13:23:46;;;;;;;2.20;1.10;;;20.10;49.60;;;;;;10426861;28;20429;-87
2022/04/21 13:28:48;;;;;;;2.50;0.82;;;19.90;50.50;;;;;;10447850;28;20060;-88
2022/04/21 13:33:50;;;;;;;1.10;0.60;;;20.60;49.60;;;;;;10449672;28;20139;-87
2022/04/21 13:38:54;;;;;;;3.97;0.50;;;20.80;49.30;;;;;;10445710;28;20118;-87
2022/04/21 13:43:55;;;;;;;2.40;0.68;;;21.30;46.80;;;;;;10450530;28;20482;-87
2022/04/21 13:49:17;;;;;;;1.33;0.50;;;21.30;47.60;;;;;;10451890;28;20053;-87
2022/04/21 13:54:19;;;;;;;2.22;0.55;;;21.20;48.90;;;;;;10453473;28;20499;-87
2022/04/21 13:59:21;;;;;;;1.70;0.50;;;21.50;47.50;;;;;;10475214;28;20062;-87
2022/04/21 14:04:23;;;;;;;1.23;0.50;;;21.20;47.30;;;;;;10456305;28;20048;-87
2022/04/21 14:09:25;;;;;;;1.27;0.50;;;21.40;46.70;;;;;;10437945;28;20055;-87
2022/04/21 14:14:28;;;;;;;1.65;0.55;;;21.00;49.10;;;;;;10455643;28;20051;-87
2022/04/21 14:19:30;;;;;;;2.13;0.73;;;20.30;49.30;;;;;;10468520;28;20043;-87
2022/04/21 14:24:32;;;;;;;2.42;0.60;;;19.80;50.20;;;;;;10456464;28;20048;-87
2022/04/21 14:29:34;;;;;;;2.83;0.55;;;19.40;51.50;;;;;;10465867;28;20051;-86
2022/04/21 14:34:37;;;;;;;1.20;0.60;;;19.30;52.30;;;;;;10437557;28;20053;-87
2022/04/21 14:45:00;;;;;;;4.15;0.50;;;18.90;53.60;;;;;;10467710;28;20106;-87
2022/04/21 14:50:05;;;;;;;3.60;0.50;;;18.40;54.30;;;;;;10466134;28;20055;-87
2022/04/21 14:55:08;;;;;;;4.03;0.60;;;18.00;55.60;;;;;;10463662;28;20049;-86
2022/04/21 15:00:11;;;;;;;1.45;0.60;;;17.70;56.50;;;;;;10449629;28;20044;-86
2022/04/21 15:05:13;;;;;;;7.78;1.65;;;17.60;57.00;;;;;;10435696;28;20060;-87
2022/04/21 15:10:15;;;;;;;4.72;0.40;;;17.60;58.10;;;;;;10434711;28;20457;-87
2022/04/21 15:15:17;;;;;;;1.83;0.63;;;17.60;57.70;;;;;;10447114;28;20040;-87
2022/04/21 15:20:19;;;;;;;1.30;0.45;;;17.50;58.10;;;;;;10450686;28;20053;-87
2022/04/21 15:25:20;;;;;;;1.20;0.57;;;17.40;58.30;;;;;;10448146;28;20119;-87
2022/04/21 15:30:22;;;;;;;0.73;0.50;;;17.20;59.20;;;;;;10432626;28;20055;-88
2022/04/21 15:35:26;;;;;;;2.65;0.60;;;17.00;60.20;;;;;;10438377;28;20132;-87
2022/04/21 15:40:28;;;;;;;1.52;0.98;;;16.90;60.60;;;;;;10464506;28;20055;-87
2022/04/21 15:45:30;;;;;;;2.97;0.60;;;16.80;60.70;;;;;;10448806;28;20129;-88
2022/04/21 15:50:34;;;;;;;0.80;0.55;;;16.70;61.30;;;;;;10432353;28;20051;-87
2022/04/21 16:00:57;;;;;;;1.90;0.90;;;16.70;62.80;;;;;;10469028;28;20055;-89
2022/04/21 16:05:58;;;;;;;4.00;1.10;;;16.70;63.20;;;;;;10446302;28;20056;-88
2022/04/21 16:11:00;;;;;;;3.47;1.20;;;16.50;62.90;;;;;;10457135;28;20134;-88
2022/04/21 16:16:02;;;;;;;4.22;1.15;;;16.60;63.30;;;;;;10434023;28;20071;-88
2022/04/21 16:21:04;;;;;;;4.90;1.55;;;16.50;62.90;;;;;;10462240;28;20063;-88
2022/04/21 16:26:09;;;;;;;2.45;1.15;;;16.60;63.00;;;;;;10441761;28;20084;-89
2022/04/21 16:31:11;;;;;;;3.13;1.23;;;16.60;62.90;;;;;;10439184;28;20159;-90
2022/04/21 16:36:13;;;;;;;4.32;1.17;;;16.70;63.70;;;;;;10459391;28;20078;-90
2022/04/21 16:41:15;;;;;;;6.57;1.40;;;16.70;64.20;;;;;;10478854;28;20056;-89
2022/04/21 16:46:17;;;;;;;2.55;1.10;;;16.70;64.30;;;;;;10466313;28;20040;-88
2022/04/21 16:51:25;;;;;;;5.40;1.25;;;16.60;63.70;;;;;;10468649;28;20055;-88
2022/04/21 16:56:28;;;;;;;2.03;1.23;;;16.60;64.20;;;;;;10476065;28;20052;-88
2022/04/21 17:06:50;;;;;;;1.88;1.17;;;16.40;64.90;;;;;;10475940;28;20124;-89
2022/04/21 17:11:52;;;;;;;7.22;1.45;;;16.20;65.80;;;;;;10441856;28;20052;-88
2022/04/21 17:16:54;;;;;;;6.47;1.85;;;16.10;66.00;;;;;;10454951;28;20110;-88
2022/04/21 17:21:56;;;;;;;4.18;1.15;;;16.00;66.30;;;;;;10458282;28;20036;-89
2022/04/21 17:26:58;;;;;;;1.90;1.23;;;15.90;66.50;;;;;;10455951;28;20045;-88
2022/04/21 17:32:01;;;;;;;1.90;1.10;;;15.90;66.80;;;;;;10460203;28;20060;-89
2022/04/21 17:37:03;;;;;;;3.63;1.20;;;15.70;66.70;;;;;;10436983;28;20514;-88
2022/04/21 17:42:05;;;;;;;3.75;1.13;;;15.70;67.10;;;;;;10434416;28;20143;-88
2022/04/21 17:47:08;;;;;;;2.10;0.98;;;15.50;67.20;;;;;;10452843;28;20617;-89
2022/04/21 17:52:10;;;;;;;2.03;0.73;;;15.40;67.80;;;;;;10437934;28;20111;-89
2022/04/21 17:57:12;;;;;;;7.20;1.10;;;15.20;68.00;;;;;;10450320;28;20136;-89
2022/04/21 18:02:13;;;;;;;1.30;0.70;;;15.10;68.50;;;;;;10404248;28;20048;-88
2022/04/21 18:07:16;;;;;;;1.17;0.70;;;15.00;69.00;;;;;;10434366;28;20057;-89
2022/04/21 18:12:17;;;;;;;1.73;1.10;;;14.90;69.70;;;;;;10418556;28;20061;-88
2022/04/21 18:17:19;;;;;;;2.38;0.93;;;14.70;70.30;;;;;;10405826;28;20124;-89
2022/04/21 18:22:21;;;;;;;1.60;0.77;;;14.60;71.20;;;;;;10428679;28;20076;-89
2022/04/21 18:27:23;;;;;;;4.55;0.90;;;14.40;72.10;;;;;;10413994;28;20053;-89
2022/04/21 18:32:25;;;;;;;2.13;0.70;;;14.20;73.60;;;;;;10427190;28;20041;-89
2022/04/21 18:37:27;;;;;;;5.07;1.00;;;14.00;73.00;;;;;;10432148;28;20068;-88
2022/04/21 18:42:29;;;;;;;2.20;0.80;;;13.90;74.10;;;;;;10397888;28;20048;-89
2022/04/21 18:47:31;;;;;;;3.35;1.70;;;13.80;74.50;;;;;;10404694;28;20050;-88
2022/04/21 18:52:33;;;;;;;3.15;0.98;;;13.60;76.10;;;;;;10424451;28;20060;-87
2022/04/21 19:02:57;;;;;;;1.33;0.65;;;13.30;78.40;;;;;;10426246;28;20061;-88
2022/04/21 19:07:59;;;;;;;2.08;0.80;;;13.10;79.90;;;;;;10450406;28;20049;-88
2022/04/21 19:13:02;;;;;;;1.67;0.70;;;12.90;81.70;;;;;;10455470;28;20084;-88
2022/04/21 19:18:03;;;;;;;3.15;0.95;;;12.80;83.20;;;;;;10466204;28;20514;-87
2022/04/21 19:23:06;;;;;;;7.15;1.33;;;12.60;84.80;;;;;;10463485;28;20058;-88
2022/04/21 19:28:08;;;;;;;2.03;0.85;;;12.50;85.90;;;;;;10450537;28;20461;-87
2022/04/21 19:33:10;;;;;;;4.15;1.20;;;12.40;87.20;;;;;;10485287;28;20041;-87
2022/04/21 19:38:12;;;;;;;3.75;1.65;;;12.30;88.60;;;;;;10468543;28;20045;-87
2022/04/21 19:43:13;;;;;;;3.60;1.33;;;12.10;90.10;;;;;;10459192;28;20055;-87
2022/04/21 19:48:15;;;;;;;1.60;0.80;;;12.00;91.20;;;;;;10474493;28;20083;-87
2022/04/21 19:53:17;;;;;;;3.10;1.30;;;11.90;91.70;;;;;;10468748;28;20076;-87
2022/04/21 19:58:19;;;;;;;4.05;1.08;;;11.80;93.10;;;;;;10469311;28;20049;-87
2022/04/21 20:03:22;;;;;;;5.65;1.60;;;11.60;94.20;;;;;;10460542;28;20040;-87
2022/04/21 20:13:47;;;;;;;1.73;1.25;;;11.30;95.90;;;;;;10480235;28;20048;-87
2022/04/21 20:29:41;;;;;;;5.53;1.42;;;11.00;98.10;;;;;;10248962;28;20043;-60
2022/04/21 20:34:43;;;;;;;9.15;1.85;;;10.90;98.80;;;;;;10233032;28;20737;-59
2022/04/21 20:39:46;;;;;;;3.92;1.60;;;10.80;99.50;;;;;;10253982;28;20045;-60
2022/04/21 20:44:49;;;;;;;2.88;1.50;;;10.70;99.90;;;;;;10263743;28;20043;-60
2022/04/21 20:49:52;;;;;;;7.28;1.75;;;10.60;99.90;;;;;;10263266;28;20047;-59
2022/04/21 20:54:54;;;;;;;6.70;1.95;;;10.60;99.90;;;;;;10264074;28;20059;-59
2022/04/21 20:59:56;;;;;;;3.97;1.98;;;10.50;99.90;;;;;;10265234;28;20052;-60
2022/04/21 21:04:57;;;;;;;3.28;1.67;;;10.50;99.90;;;;;;10264510;28;20059;-60
2022/04/21 21:09:59;;;;;;;4.65;1.77;;;10.40;99.90;;;;;;10252939;28;20055;-60
2022/04/21 21:15:01;;;;;;;4.03;1.73;;;10.40;99.90;;;;;;10251274;28;20082;-60
2022/04/21 21:20:03;;;;;;;3.15;1.70;;;10.40;99.90;;;;;;10254927;28;20070;-60
2022/04/21 21:25:06;;;;;;;6.20;2.03;;;10.40;99.90;;;;;;10224066;28;20483;-60
2022/04/21 21:30:11;;;;;;;4.53;2.15;;;10.30;99.90;;;;;;10223187;28;20051;-60
2022/04/21 21:35:13;;;;;;;4.60;1.83;;;10.20;99.90;;;;;;10221628;28;20051;-60
2022/04/21 21:40:15;;;;;;;3.30;1.77;;;10.10;99.90;;;;;;10224846;28;20054;-60
2022/04/21 21:45:17;;;;;;;6.95;2.42;;;9.90;99.90;;;;;;10220575;28;20099;-60
2022/04/21 21:55:39;;;;;;;5.57;2.45;;;9.90;99.90;;;;;;10220260;28;20054;-60
2022/04/21 22:00:47;;;;;;;6.40;3.38;;;9.80;99.90;;;;;;10223739;28;20126;-60
2022/04/21 22:05:49;;;;;;;5.97;3.20;;;9.70;99.90;;;;;;10221148;28;20055;-60
2022/04/21 22:10:51;;;;;;;5.95;2.92;;;9.70;99.90;;;;;;10223072;28;20386;-60
2022/04/21 22:15:52;;;;;;;10.07;4.20;;;9.60;99.90;;;;;;10220585;28;20055;-60
2022/04/21 22:20:54;;;;;;;7.55;3.22;;;9.60;99.90;;;;;;10214112;28;20110;-59
2022/04/21 22:25:56;;;;;;;10.18;4.28;;;9.60;99.90;;;;;;10217926;28;20054;-60
2022/04/21 22:30:59;;;;;;;11.57;4.38;;;9.60;99.90;;;;;;10220437;28;20055;-59
2022/04/21 22:36:01;;;;;;;10.23;4.18;;;9.50;99.90;;;;;;10225394;28;20058;-59
2022/04/21 22:41:08;;;;;;;8.55;4.40;;;9.50;99.90;;;;;;10220911;28;20097;-59
2022/04/21 22:46:11;;;;;;;8.50;4.53;;;9.40;99.90;;;;;;10212919;28;20047;-59
2022/04/21 22:51:13;;;;;;;10.25;4.93;;;9.40;99.90;;;;;;10201061;28;20054;-60
2022/04/21 22:56:14;;;;;;;8.75;4.22;;;9.30;99.90;;;;;;10224490;28;20035;-59
2022/04/21 23:01:16;;;;;;;11.70;4.75;;;9.30;99.90;;;;;;10220427;28;20055;-59
2022/04/21 23:06:18;;;;;;;13.05;4.60;;;9.30;99.90;;;;;;10220324;28;20082;-59
2022/04/21 23:16:59;;;;;;;14.55;4.57;;;9.40;99.90;;;;;;10165392;28;20065;-60
2022/04/21 23:22:01;;;;;;;17.25;7.47;;;9.40;99.90;;;;;;10257181;28;20055;-59
2022/04/21 23:27:04;;;;;;;13.35;4.57;;;9.40;99.90;;;;;;10256480;28;20058;-59
2022/04/21 23:32:06;;;;;;;11.27;5.38;;;9.40;99.90;;;;;;10255537;28;20054;-59
2022/04/21 23:37:07;;;;;;;14.88;5.93;;;9.40;99.90;;;;;;10258651;28;20095;-59
2022/04/21 23:42:12;;;;;;;18.17;5.13;;;9.30;99.90;;;;;;10260805;28;20055;-59
2022/04/21 23:47:19;;;;;;;14.95;5.35;;;9.30;99.90;;;;;;10245732;28;20099;-59
2022/04/21 23:52:21;;;;;;;10.05;5.38;;;9.30;99.90;;;;;;10262484;28;20047;-59
2022/04/21 23:57:22;;;;;;;13.32;5.40;;;9.20;99.90;;;;;;10258786;28;20409;-59
